createdAt,value
2022-10-14T00:02:08.682Z,16.00
2022-10-14T00:07:06.878Z,15.90
2022-10-14T00:12:05.163Z,16.00
2022-10-14T00:17:03.434Z,15.90
2022-10-14T00:22:02.952Z,15.90
2022-10-14T00:27:01.278Z,16.00
2022-10-14T00:31:59.472Z,16.00
2022-10-14T00:36:57.605Z,15.90
2022-10-14T00:41:57.093Z,15.90
2022-10-14T00:46:56.732Z,16.00
2022-10-14T00:51:59.479Z,16.00
2022-10-14T00:56:59.052Z,15.90
2022-10-14T01:01:57.224Z,15.90
2022-10-14T01:07:01.904Z,16.00
2022-10-14T01:12:28.188Z,16.00
2022-10-14T01:17:40.027Z,15.90
2022-10-14T01:22:44.860Z,16.00
2022-10-14T01:28:06.103Z,15.90
2022-10-14T01:33:17.219Z,15.90
2022-10-14T01:38:20.175Z,15.90
2022-10-14T01:43:21.798Z,15.90
2022-10-14T01:48:26.650Z,15.90
2022-10-14T01:53:28.249Z,15.90
2022-10-14T01:58:31.571Z,15.90
2022-10-14T02:03:42.155Z,15.90
2022-10-14T02:08:53.717Z,15.90
2022-10-14T02:14:11.213Z,15.80
2022-10-14T02:19:20.557Z,15.90
2022-10-14T02:24:25.390Z,15.90
2022-10-14T02:29:25.538Z,15.90
2022-10-14T02:34:27.478Z,15.90
2022-10-14T02:39:30.073Z,15.90
2022-10-14T02:44:28.878Z,15.80
2022-10-14T02:49:28.407Z,15.90
2022-10-14T02:54:26.538Z,15.90
2022-10-14T02:59:24.719Z,15.80
2022-10-14T03:04:23.216Z,15.80
2022-10-14T03:09:24.973Z,15.80
2022-10-14T03:14:23.254Z,15.70
2022-10-14T03:19:22.487Z,15.70
2022-10-14T03:24:25.735Z,15.70
2022-10-14T03:29:43.824Z,15.70
2022-10-14T03:34:48.619Z,15.70
2022-10-14T03:39:54.354Z,15.70
2022-10-14T03:44:53.088Z,15.70
2022-10-14T03:49:57.577Z,15.80
2022-10-14T03:55:05.030Z,15.80
2022-10-14T04:00:04.838Z,15.70
2022-10-14T04:05:11.658Z,15.70
2022-10-14T04:10:12.864Z,15.70
2022-10-14T04:15:16.337Z,15.70
2022-10-14T04:20:33.559Z,15.70
2022-10-14T04:25:33.283Z,15.70
2022-10-14T04:30:34.799Z,15.70
2022-10-14T04:35:33.358Z,15.70
2022-10-14T04:40:33.625Z,15.70
2022-10-14T04:45:33.603Z,15.70
2022-10-14T04:50:34.709Z,15.70
2022-10-14T04:55:52.431Z,15.70
2022-10-14T05:00:51.147Z,15.70
2022-10-14T05:06:06.203Z,15.70
2022-10-14T05:11:08.914Z,15.70
2022-10-14T05:16:13.580Z,15.70
2022-10-14T05:21:11.899Z,15.70
2022-10-14T05:26:27.381Z,15.70
2022-10-14T05:31:27.818Z,15.70
2022-10-14T05:36:49.704Z,15.70
2022-10-14T05:41:50.135Z,15.70
2022-10-14T05:46:54.393Z,15.70
2022-10-14T05:51:53.462Z,15.70
2022-10-14T05:56:55.791Z,15.70
2022-10-14T06:01:55.458Z,15.70
2022-10-14T06:06:56.035Z,15.70
2022-10-14T06:11:55.694Z,15.70
2022-10-14T06:16:54.007Z,15.70
2022-10-14T06:21:52.378Z,15.70
2022-10-14T06:26:50.618Z,15.70
2022-10-14T06:31:50.078Z,15.70
2022-10-14T06:36:48.401Z,15.70
2022-10-14T06:41:46.545Z,15.70
2022-10-14T06:46:51.822Z,15.70
2022-10-14T06:51:49.991Z,15.70
2022-10-14T06:56:48.086Z,15.70
2022-10-14T07:01:46.358Z,15.70
2022-10-14T07:06:45.852Z,15.70
2022-10-14T07:11:43.970Z,15.70
2022-10-14T07:16:44.422Z,15.70
2022-10-14T07:21:42.905Z,15.70
2022-10-14T07:26:42.368Z,15.70
2022-10-14T07:31:40.550Z,15.70
2022-10-14T07:36:38.664Z,15.80
2022-10-14T07:41:37.043Z,15.90
2022-10-14T07:46:39.496Z,15.90
2022-10-14T07:51:38.345Z,15.90
2022-10-14T07:56:36.908Z,15.90
2022-10-14T08:01:36.524Z,16.00
2022-10-14T08:06:34.691Z,16.00
2022-10-14T08:11:33.035Z,16.00
2022-10-14T08:16:32.990Z,16.10
2022-10-14T08:21:32.937Z,16.10
2022-10-14T08:26:34.069Z,16.20
2022-10-14T08:31:32.925Z,16.30
2022-10-14T08:36:32.435Z,16.30
2022-10-14T08:41:55.490Z,16.30
2022-10-14T08:46:55.912Z,16.40
2022-10-14T08:58:48.407Z,16.50
2022-10-14T09:03:46.662Z,16.50
2022-10-14T09:08:47.912Z,16.50
2022-10-14T09:13:50.279Z,16.60
2022-10-14T09:18:54.611Z,16.70
2022-10-14T09:23:58.543Z,16.80
2022-10-14T09:28:58.074Z,16.80
2022-10-14T09:33:56.163Z,16.90
2022-10-14T09:38:56.252Z,17.00
2022-10-14T09:44:21.608Z,17.10
2022-10-14T09:49:25.373Z,17.30
2022-10-14T09:54:26.513Z,17.50
2022-10-14T10:06:25.796Z,17.90
2022-10-14T10:11:29.958Z,18.10
2022-10-14T10:17:19.355Z,18.30
2022-10-14T10:23:06.882Z,18.50
2022-10-14T10:28:17.860Z,18.60
2022-10-14T10:33:27.143Z,18.80
2022-10-14T10:38:32.207Z,18.90
2022-10-14T10:43:57.342Z,19.10
2022-10-14T10:49:02.643Z,19.20
2022-10-14T10:54:09.105Z,19.20
2022-10-14T10:59:47.231Z,19.20
2022-10-14T11:04:50.480Z,19.20
2022-10-14T11:10:19.651Z,19.10
2022-10-14T11:15:39.850Z,19.20
2022-10-14T11:20:47.981Z,19.20
2022-10-14T11:25:52.221Z,19.30
2022-10-14T11:30:59.766Z,19.40
2022-10-14T11:36:08.676Z,19.40
2022-10-14T11:41:13.874Z,19.40
2022-10-14T11:46:17.726Z,19.50
2022-10-14T11:51:22.121Z,19.50
2022-10-14T11:56:32.378Z,19.60
2022-10-14T12:01:37.242Z,19.70
2022-10-14T12:06:42.377Z,19.70
2022-10-14T12:12:47.938Z,19.80
2022-10-14T12:17:52.192Z,19.90
2022-10-14T12:22:51.535Z,19.90
2022-10-14T12:27:52.232Z,19.90
2022-10-14T12:33:03.136Z,19.90
2022-10-14T12:38:04.848Z,19.90
2022-10-14T12:43:15.584Z,20.00
2022-10-14T12:48:19.315Z,20.00
2022-10-14T12:53:25.079Z,20.10
2022-10-14T12:58:30.411Z,20.10
2022-10-14T13:03:34.231Z,20.10
2022-10-14T13:08:32.328Z,20.00
2022-10-14T13:13:52.363Z,20.00
2022-10-14T13:18:53.560Z,20.00
2022-10-14T13:23:53.307Z,20.00
2022-10-14T13:29:02.508Z,20.00
2022-10-14T13:34:14.162Z,19.90
2022-10-14T13:39:12.472Z,19.90
2022-10-14T13:44:13.254Z,19.80
2022-10-14T13:49:18.672Z,19.80
2022-10-14T13:54:19.694Z,19.80
2022-10-14T13:59:43.203Z,19.80
2022-10-14T14:04:45.823Z,19.70
2022-10-14T14:09:51.152Z,19.70
2022-10-14T14:14:51.121Z,19.70
2022-10-14T14:19:51.680Z,19.60
2022-10-14T14:24:50.280Z,19.60
2022-10-14T14:29:51.339Z,19.60
2022-10-14T14:40:00.580Z,19.50
2022-10-14T14:45:02.235Z,19.50
2022-10-14T14:50:28.560Z,19.50
2022-10-14T14:55:44.275Z,19.50
2022-10-14T15:00:46.434Z,19.50
2022-10-14T15:05:52.676Z,19.50
2022-10-14T15:10:51.710Z,19.50
2022-10-14T15:15:54.201Z,19.40
2022-10-14T15:21:04.524Z,19.40
2022-10-14T15:26:02.620Z,19.40
2022-10-14T15:31:04.750Z,19.30
2022-10-14T15:36:06.143Z,19.20
2022-10-14T15:41:05.305Z,19.20
2022-10-14T15:46:20.935Z,19.20
2022-10-14T15:51:22.296Z,19.10
2022-10-14T15:56:20.978Z,19.00
2022-10-14T16:01:21.944Z,19.00
2022-10-14T16:06:22.748Z,18.90
2022-10-14T16:11:24.581Z,18.90
2022-10-14T16:16:26.308Z,18.80
2022-10-14T16:21:25.752Z,18.80
2022-10-14T16:26:24.935Z,18.70
2022-10-14T16:31:23.323Z,18.60
2022-10-14T16:36:26.497Z,18.60
2022-10-14T16:41:27.538Z,18.50
2022-10-14T16:46:45.666Z,18.50
2022-10-14T16:51:45.826Z,18.40
2022-10-14T16:57:00.612Z,18.40
2022-10-14T17:02:00.810Z,18.30
2022-10-14T17:07:06.953Z,18.20
2022-10-14T17:12:09.418Z,18.20
2022-10-14T17:17:13.065Z,18.10
2022-10-14T17:22:13.617Z,18.10
2022-10-14T17:27:11.776Z,18.00
2022-10-14T17:32:09.874Z,18.00
2022-10-14T17:42:12.655Z,17.90
2022-10-14T17:47:10.747Z,17.90
2022-10-14T17:52:08.905Z,17.80
2022-10-14T17:57:07.019Z,17.80
2022-10-14T18:02:09.615Z,17.70
2022-10-14T18:07:07.750Z,17.70
2022-10-14T18:12:09.245Z,17.70
2022-10-14T18:17:12.823Z,17.60
2022-10-14T18:22:12.057Z,17.60
2022-10-14T18:27:10.185Z,17.60
2022-10-14T18:32:09.710Z,17.60
2022-10-14T18:37:10.348Z,17.50
2022-10-14T18:42:08.519Z,17.50
2022-10-14T18:47:06.903Z,17.50
2022-10-14T18:52:06.436Z,17.50
2022-10-14T18:57:04.922Z,17.50
2022-10-14T19:02:03.760Z,17.50
2022-10-14T19:07:01.856Z,17.40
2022-10-14T19:12:21.574Z,17.40
2022-10-14T19:17:19.915Z,17.40
2022-10-14T19:22:18.052Z,17.40
2022-10-14T19:27:17.791Z,17.40
2022-10-14T19:32:15.895Z,17.30
2022-10-14T19:37:14.009Z,17.30
2022-10-14T19:42:12.131Z,17.30
2022-10-14T19:48:12.408Z,17.30
2022-10-14T19:53:12.388Z,17.20
2022-10-14T19:58:10.908Z,17.20
2022-10-14T20:03:09.095Z,17.20
2022-10-14T20:08:07.310Z,17.20
2022-10-14T20:13:06.866Z,17.20
2022-10-14T20:18:05.070Z,17.10
2022-10-14T20:23:03.167Z,17.10
2022-10-14T20:28:01.273Z,17.10
2022-10-14T20:33:00.930Z,17.10
2022-10-14T20:37:59.086Z,17.10
2022-10-14T20:42:57.855Z,17.10
2022-10-14T20:47:56.680Z,17.10
2022-10-14T21:06:47.698Z,17.10
2022-10-14T21:11:46.542Z,17.00
2022-10-14T21:16:44.710Z,17.00
2022-10-14T21:21:46.112Z,17.10
2022-10-14T21:26:46.414Z,17.10
2022-10-14T21:31:44.650Z,17.10
2022-10-14T21:36:43.349Z,17.10
2022-10-14T21:41:42.790Z,17.10
2022-10-14T21:46:42.340Z,17.10
2022-10-14T21:51:41.040Z,17.10
2022-10-14T21:56:39.610Z,17.10
2022-10-14T22:01:37.784Z,17.10
2022-10-14T22:06:37.722Z,17.20
2022-10-14T22:11:38.133Z,17.10
2022-10-14T22:16:37.191Z,17.20
2022-10-14T22:21:38.573Z,17.20
2022-10-14T22:26:37.611Z,17.20
2022-10-14T22:31:36.370Z,17.20
2022-10-14T22:36:35.993Z,17.20
2022-10-14T22:41:36.105Z,17.20
2022-10-14T22:46:35.632Z,17.20
2022-10-14T22:51:35.901Z,17.20
2022-10-14T22:56:35.376Z,17.20
2022-10-14T23:01:34.390Z,17.20
2022-10-14T23:06:32.599Z,17.20
2022-10-14T23:11:32.030Z,17.20
2022-10-14T23:16:31.481Z,17.20
2022-10-14T23:21:31.891Z,17.20
2022-10-14T23:26:33.129Z,17.20
2022-10-14T23:31:34.323Z,17.20
2022-10-14T23:36:33.094Z,17.20
2022-10-14T23:41:31.340Z,17.20
2022-10-14T23:46:29.582Z,17.20
2022-10-14T23:51:29.183Z,17.10
2022-10-14T23:56:27.351Z,17.20
